createdAt,value
2022-11-23T00:00:40.926Z,5.60
2022-11-23T00:03:27.554Z,4.00
2022-11-23T00:05:54.490Z,4.05
2022-11-23T00:08:21.141Z,3.20
2022-11-23T00:10:48.056Z,3.97
2022-11-23T00:13:14.944Z,3.55
2022-11-23T00:15:41.927Z,3.47
2022-11-23T00:18:08.529Z,4.47
2022-11-23T00:20:35.463Z,3.75
2022-11-23T00:23:02.083Z,3.77
2022-11-23T00:25:29.593Z,4.25
2022-11-23T00:27:56.429Z,3.80
2022-11-23T00:30:23.426Z,3.72
2022-11-23T00:32:50.160Z,4.10
2022-11-23T00:35:17.091Z,3.97
2022-11-23T00:37:43.856Z,5.03
2022-11-23T00:40:12.035Z,4.30
2022-11-23T00:42:38.761Z,5.10
2022-11-23T00:45:06.377Z,5.18
2022-11-23T00:47:33.066Z,5.10
2022-11-23T00:50:00.007Z,3.83
2022-11-23T00:52:26.758Z,4.07
2022-11-23T00:54:53.648Z,4.32
2022-11-23T00:57:20.282Z,3.92
2022-11-23T00:59:47.181Z,3.80
2022-11-23T01:02:13.811Z,3.63
2022-11-23T01:04:40.830Z,3.83
2022-11-23T01:07:07.536Z,3.35
2022-11-23T01:09:34.500Z,3.90
2022-11-23T01:12:01.210Z,3.13
2022-11-23T01:14:28.206Z,3.03
2022-11-23T01:16:55.538Z,2.97
2022-11-23T01:19:22.549Z,2.85
2022-11-23T01:21:49.744Z,2.78
2022-11-23T01:24:20.345Z,2.53
2022-11-23T01:26:54.179Z,2.50
2022-11-23T01:29:22.076Z,2.80
2022-11-23T01:31:48.730Z,2.78
2022-11-23T01:34:17.010Z,2.92
2022-11-23T01:36:45.070Z,3.50
2022-11-23T01:39:13.400Z,3.70
2022-11-23T01:41:43.653Z,3.53
2022-11-23T01:44:26.027Z,2.90
2022-11-23T01:46:59.112Z,2.85
2022-11-23T01:49:30.069Z,5.30
2022-11-23T01:51:59.772Z,4.15
2022-11-23T01:54:45.036Z,4.07
2022-11-23T01:57:19.225Z,3.60
2022-11-23T01:59:47.465Z,3.47
2022-11-23T02:02:15.441Z,3.40
2022-11-23T02:04:45.842Z,3.30
2022-11-23T02:07:16.120Z,3.30
2022-11-23T02:09:45.693Z,3.38
2022-11-23T02:12:13.484Z,3.05
2022-11-23T02:14:41.639Z,2.90
2022-11-23T02:17:08.763Z,3.00
2022-11-23T02:20:09.201Z,2.83
2022-11-23T02:23:03.939Z,2.78
2022-11-23T02:25:40.920Z,3.30
2022-11-23T02:28:11.916Z,3.23
2022-11-23T02:30:40.483Z,2.63
2022-11-23T02:33:07.507Z,3.15
2022-11-23T02:35:35.276Z,2.83
2022-11-23T02:38:06.373Z,4.53
2022-11-23T02:40:36.273Z,4.50
2022-11-23T02:43:03.418Z,3.45
2022-11-23T02:45:37.890Z,3.08
2022-11-23T02:48:05.070Z,2.83
2022-11-23T02:50:32.524Z,2.83
2022-11-23T02:53:00.540Z,3.63
2022-11-23T02:55:27.463Z,4.10
2022-11-23T02:57:54.167Z,3.63
2022-11-23T03:00:21.362Z,3.67
2022-11-23T03:02:48.128Z,4.68
2022-11-23T03:05:16.714Z,4.87
2022-11-23T03:07:43.439Z,5.30
2022-11-23T03:10:12.876Z,5.10
2022-11-23T03:12:39.618Z,4.13
2022-11-23T03:15:07.002Z,5.13
2022-11-23T03:17:35.341Z,5.00
2022-11-23T03:20:02.933Z,5.10
2022-11-23T03:22:36.179Z,4.60
2022-11-23T03:25:03.528Z,3.67
2022-11-23T03:27:33.556Z,4.53
2022-11-23T03:30:01.218Z,6.30
2022-11-23T03:32:31.817Z,4.03
2022-11-23T03:35:00.106Z,3.67
2022-11-23T03:37:27.803Z,4.75
2022-11-23T03:39:54.806Z,4.35
2022-11-23T03:42:41.005Z,4.67
2022-11-23T03:45:09.766Z,4.55
2022-11-23T03:47:36.842Z,5.07
2022-11-23T03:50:04.325Z,5.90
2022-11-23T03:52:32.348Z,5.22
2022-11-23T03:54:59.770Z,6.07
2022-11-23T03:57:27.055Z,6.18
2022-11-23T03:59:54.241Z,4.63
2022-11-23T04:02:21.600Z,4.00
2022-11-23T04:04:58.734Z,4.25
2022-11-23T04:07:43.878Z,5.07
2022-11-23T04:10:11.068Z,6.15
2022-11-23T04:12:57.880Z,5.93
2022-11-23T04:15:25.052Z,5.90
2022-11-23T04:17:52.303Z,6.22
2022-11-23T04:20:19.353Z,4.30
2022-11-23T04:22:46.290Z,4.47
2022-11-23T04:25:13.824Z,4.05
2022-11-23T04:27:40.552Z,3.70
2022-11-23T04:30:09.391Z,3.05
2022-11-23T04:32:36.994Z,3.03
2022-11-23T04:35:04.691Z,4.82
2022-11-23T04:37:31.908Z,5.10
2022-11-23T04:39:58.887Z,4.50
2022-11-23T04:42:41.579Z,3.10
2022-11-23T04:45:08.901Z,4.33
2022-11-23T04:47:35.801Z,5.10
2022-11-23T04:50:07.624Z,5.53
2022-11-23T04:52:34.285Z,5.63
2022-11-23T04:55:02.073Z,5.45
2022-11-23T04:57:31.141Z,6.20
2022-11-23T04:59:58.177Z,5.10
2022-11-23T05:02:27.155Z,6.30
2022-11-23T05:05:09.664Z,5.60
2022-11-23T05:07:36.449Z,4.20
2022-11-23T05:10:04.533Z,3.87
2022-11-23T05:12:32.876Z,5.00
2022-11-23T05:15:01.417Z,4.88
2022-11-23T05:17:34.445Z,3.78
2022-11-23T05:20:01.792Z,2.90
2022-11-23T05:22:31.168Z,2.70
2022-11-23T05:24:58.284Z,2.33
2022-11-23T05:27:26.208Z,4.35
2022-11-23T05:29:53.431Z,7.30
2022-11-23T05:32:20.311Z,7.63
2022-11-23T05:34:47.852Z,7.00
2022-11-23T05:37:16.696Z,6.65
2022-11-23T05:39:52.381Z,6.90
2022-11-23T05:42:19.936Z,6.80
2022-11-23T05:44:48.149Z,4.68
2022-11-23T05:47:21.357Z,3.20
2022-11-23T05:49:49.559Z,2.80
2022-11-23T05:52:19.537Z,2.80
2022-11-23T05:54:47.516Z,2.30
2022-11-23T05:57:15.887Z,2.55
2022-11-23T05:59:44.609Z,2.77
2022-11-23T06:02:16.806Z,2.42
2022-11-23T06:04:44.463Z,2.88
2022-11-23T06:07:15.688Z,3.20
2022-11-23T06:10:06.501Z,3.10
2022-11-23T06:12:36.932Z,2.83
2022-11-23T06:15:07.366Z,2.88
2022-11-23T06:17:36.851Z,3.08
2022-11-23T06:20:09.303Z,2.38
2022-11-23T06:22:40.947Z,2.30
2022-11-23T06:25:09.268Z,2.23
2022-11-23T06:27:40.874Z,2.50
2022-11-23T06:30:19.223Z,2.85
2022-11-23T06:32:47.510Z,3.05
2022-11-23T06:35:15.477Z,3.13
2022-11-23T06:37:43.620Z,2.70
2022-11-23T06:40:13.089Z,2.90
2022-11-23T06:42:40.858Z,3.83
2022-11-23T06:45:19.389Z,3.30
2022-11-23T06:47:48.244Z,3.80
2022-11-23T06:50:15.708Z,3.40
2022-11-23T06:52:44.874Z,2.90
2022-11-23T06:55:11.849Z,5.20
2022-11-23T06:57:38.587Z,6.07
2022-11-23T07:00:06.339Z,8.82
2022-11-23T07:02:37.132Z,9.55
2022-11-23T07:05:04.357Z,8.27
2022-11-23T07:07:32.012Z,7.70
2022-11-23T07:10:08.964Z,8.80
2022-11-23T07:12:43.890Z,7.60
2022-11-23T07:15:12.009Z,7.10
2022-11-23T07:17:44.484Z,7.27
2022-11-23T07:20:12.853Z,5.43
2022-11-23T07:22:39.771Z,5.53
2022-11-23T07:25:08.406Z,8.05
2022-11-23T07:27:35.276Z,6.60
2022-11-23T07:30:03.353Z,8.87
2022-11-23T07:32:30.598Z,9.63
2022-11-23T07:34:57.826Z,8.20
2022-11-23T07:37:25.970Z,6.10
2022-11-23T07:39:57.924Z,8.15
2022-11-23T07:42:39.877Z,6.47
2022-11-23T07:45:12.117Z,7.82
2022-11-23T07:47:43.442Z,7.47
2022-11-23T07:50:12.230Z,7.55
2022-11-23T07:52:40.055Z,8.10
2022-11-23T07:55:07.338Z,6.70
2022-11-23T07:57:34.022Z,5.50
2022-11-23T08:00:00.945Z,6.45
2022-11-23T08:02:27.671Z,6.60
2022-11-23T08:04:55.444Z,6.60
2022-11-23T08:07:22.166Z,7.17
2022-11-23T08:09:49.143Z,7.43
2022-11-23T08:12:15.908Z,6.80
2022-11-23T08:14:42.827Z,7.05
2022-11-23T08:17:10.472Z,7.03
2022-11-23T08:19:37.374Z,6.23
2022-11-23T08:22:04.142Z,6.20
2022-11-23T08:24:31.440Z,5.28
2022-11-23T08:26:58.426Z,5.78
2022-11-23T08:29:25.546Z,6.32
2022-11-23T08:31:52.722Z,5.70
2022-11-23T08:34:20.315Z,6.13
2022-11-23T08:36:48.143Z,6.70
2022-11-23T08:39:16.345Z,6.47
2022-11-23T08:41:43.063Z,6.65
2022-11-23T08:44:11.321Z,5.47
2022-11-23T08:46:39.010Z,5.40
2022-11-23T08:49:07.237Z,4.97
2022-11-23T08:51:33.980Z,4.25
2022-11-23T08:54:00.924Z,3.42
2022-11-23T08:56:27.675Z,3.50
2022-11-23T08:58:54.606Z,3.60
2022-11-23T09:01:21.400Z,3.08
2022-11-23T09:03:48.330Z,3.20
2022-11-23T09:06:15.067Z,3.38
2022-11-23T09:08:42.054Z,3.30
2022-11-23T09:11:11.959Z,4.55
2022-11-23T09:13:39.448Z,3.28
2022-11-23T09:16:07.036Z,3.30
2022-11-23T09:18:35.484Z,2.80
2022-11-23T09:21:05.771Z,2.50
2022-11-23T09:23:33.065Z,2.20
2022-11-23T09:26:00.937Z,2.47
2022-11-23T09:28:28.528Z,2.40
2022-11-23T09:30:56.368Z,1.92
2022-11-23T09:33:24.593Z,1.70
2022-11-23T09:36:02.262Z,2.08
2022-11-23T09:38:51.891Z,1.92
2022-11-23T09:41:23.728Z,1.80
2022-11-23T09:44:01.313Z,1.77
2022-11-23T09:46:59.016Z,1.50
2022-11-23T09:49:42.176Z,1.35
2022-11-23T09:52:21.845Z,1.30
2022-11-23T09:54:52.690Z,1.40
2022-11-23T09:57:24.600Z,1.60
2022-11-23T10:00:15.872Z,1.93
2022-11-23T10:02:42.572Z,1.65
2022-11-23T10:05:17.466Z,1.60
2022-11-23T10:07:53.569Z,1.85
2022-11-23T10:10:26.616Z,2.13
2022-11-23T10:13:13.488Z,2.00
2022-11-23T10:16:04.151Z,2.50
2022-11-23T10:18:38.469Z,2.45
2022-11-23T10:21:11.275Z,2.20
2022-11-23T10:24:19.987Z,2.67
2022-11-23T10:26:49.716Z,1.80
2022-11-23T10:29:30.056Z,2.08
2022-11-23T10:31:58.042Z,1.92
2022-11-23T10:34:50.489Z,2.30
2022-11-23T10:37:18.337Z,2.53
2022-11-23T10:39:45.300Z,1.80
2022-11-23T10:42:42.259Z,1.98
2022-11-23T10:45:20.275Z,2.15
2022-11-23T10:47:59.410Z,2.10
2022-11-23T10:50:30.514Z,1.40
2022-11-23T10:53:00.499Z,1.80
2022-11-23T10:55:30.712Z,1.35
2022-11-23T10:57:58.587Z,1.40
2022-11-23T11:00:30.944Z,1.30
2022-11-23T11:02:59.835Z,1.38
2022-11-23T11:08:24.609Z,1.30
2022-11-23T11:11:02.115Z,1.80
2022-11-23T11:13:32.004Z,1.70
2022-11-23T11:16:00.227Z,2.30
2022-11-23T11:18:33.884Z,1.90
2022-11-23T11:21:06.661Z,7.97
2022-11-23T11:23:39.073Z,3.60
2022-11-23T11:26:10.098Z,2.47
2022-11-23T11:28:42.148Z,2.10
2022-11-23T11:31:08.833Z,1.73
2022-11-23T11:34:01.272Z,1.67
2022-11-23T11:36:36.353Z,2.22
2022-11-23T11:39:19.459Z,1.65
2022-11-23T11:41:48.400Z,1.90
2022-11-23T11:44:25.477Z,1.90
2022-11-23T11:47:06.482Z,2.22
2022-11-23T11:49:41.301Z,2.47
2022-11-23T11:52:10.366Z,1.90
2022-11-23T11:54:46.640Z,1.90
2022-11-23T11:57:27.226Z,1.90
2022-11-23T11:59:57.859Z,2.20
2022-11-23T12:02:34.060Z,1.33
2022-11-23T12:05:38.215Z,1.60
2022-11-23T12:08:21.490Z,1.50
2022-11-23T12:10:58.067Z,2.00
2022-11-23T12:13:32.288Z,2.00
2022-11-23T12:16:11.121Z,1.80
2022-11-23T12:19:05.358Z,1.70
2022-11-23T12:22:01.619Z,1.90
2022-11-23T12:24:46.402Z,2.00
2022-11-23T12:27:19.314Z,1.40
2022-11-23T12:29:51.256Z,1.23
2022-11-23T12:32:45.850Z,1.40
2022-11-23T12:35:16.056Z,1.52
2022-11-23T12:37:49.061Z,1.57
2022-11-23T12:40:23.395Z,1.52
2022-11-23T12:42:55.582Z,1.40
2022-11-23T12:46:03.737Z,1.30
2022-11-23T12:49:00.088Z,1.40
2022-11-23T12:51:40.849Z,1.27
2022-11-23T12:54:16.851Z,1.50
2022-11-23T12:57:10.317Z,2.00
2022-11-23T12:59:46.395Z,1.48
2022-11-23T13:02:33.186Z,1.30
2022-11-23T13:05:11.827Z,1.47
2022-11-23T13:08:01.411Z,1.20
2022-11-23T13:11:06.806Z,1.48
2022-11-23T13:13:49.247Z,1.65
2022-11-23T13:16:25.714Z,1.40
2022-11-23T13:19:17.549Z,1.80
2022-11-23T13:21:46.445Z,2.10
2022-11-23T13:24:33.840Z,4.07
2022-11-23T13:27:13.411Z,2.50
2022-11-23T13:29:46.016Z,1.88
2022-11-23T13:32:43.026Z,3.97
2022-11-23T13:35:32.602Z,1.75
2022-11-23T13:38:14.882Z,1.70
2022-11-23T13:40:43.760Z,1.40
2022-11-23T13:43:20.865Z,1.20
2022-11-23T13:46:16.521Z,1.33
2022-11-23T13:49:01.322Z,1.40
2022-11-23T13:51:32.295Z,1.20
2022-11-23T13:54:19.826Z,1.30
2022-11-23T13:56:56.140Z,1.33
2022-11-23T13:59:23.011Z,2.10
2022-11-23T14:02:13.695Z,1.60
2022-11-23T14:04:43.284Z,1.60
2022-11-23T14:07:22.308Z,1.40
2022-11-23T14:09:52.252Z,1.50
2022-11-23T14:12:28.848Z,1.40
2022-11-23T14:15:07.465Z,1.52
2022-11-23T14:17:55.459Z,1.38
2022-11-23T14:20:28.659Z,1.27
2022-11-23T14:23:20.322Z,1.75
2022-11-23T14:26:15.467Z,1.60
2022-11-23T14:29:07.591Z,1.40
2022-11-23T14:32:02.284Z,1.42
2022-11-23T14:34:55.651Z,1.75
2022-11-23T14:37:22.500Z,1.30
2022-11-23T14:40:27.479Z,1.80
2022-11-23T14:42:56.420Z,1.50
2022-11-23T14:45:33.658Z,1.52
2022-11-23T14:48:22.564Z,1.48
2022-11-23T14:51:03.427Z,1.30
2022-11-23T14:53:35.892Z,1.40
2022-11-23T14:56:02.701Z,1.55
2022-11-23T14:58:32.440Z,1.30
2022-11-23T15:01:02.959Z,1.25
2022-11-23T15:06:25.383Z,2.20
2022-11-23T15:09:07.925Z,1.80
2022-11-23T15:11:37.786Z,2.00
2022-11-23T15:14:20.263Z,1.65
2022-11-23T15:16:47.564Z,1.55
2022-11-23T15:19:28.984Z,1.87
2022-11-23T15:21:56.958Z,1.75
2022-11-23T15:24:26.192Z,1.95
2022-11-23T15:26:56.290Z,1.85
2022-11-23T15:29:38.521Z,1.70
2022-11-23T15:32:32.626Z,2.43
2022-11-23T15:35:14.075Z,4.35
2022-11-23T15:37:48.611Z,4.07
2022-11-23T15:40:17.621Z,4.60
2022-11-23T15:42:50.072Z,3.50
2022-11-23T15:45:57.023Z,3.90
2022-11-23T15:48:33.583Z,3.17
2022-11-23T15:51:08.362Z,4.85
2022-11-23T15:53:54.153Z,3.72
2022-11-23T15:56:39.494Z,3.35
2022-11-23T15:59:23.075Z,3.53
2022-11-23T16:01:50.160Z,5.70
2022-11-23T16:04:33.931Z,6.07
2022-11-23T16:07:16.818Z,5.78
2022-11-23T16:09:51.635Z,5.07
2022-11-23T16:12:31.008Z,4.60
2022-11-23T16:15:18.935Z,3.70
2022-11-23T16:17:45.932Z,3.83
2022-11-23T16:20:15.162Z,5.88
2022-11-23T16:22:49.444Z,4.75
2022-11-23T16:25:29.552Z,4.20
2022-11-23T16:28:01.261Z,4.38
2022-11-23T16:30:37.602Z,4.38
2022-11-23T16:33:05.659Z,6.75
2022-11-23T16:35:32.533Z,5.05
2022-11-23T16:37:59.502Z,4.90
2022-11-23T16:40:26.220Z,4.95
2022-11-23T16:42:53.712Z,4.97
2022-11-23T16:45:20.587Z,6.70
2022-11-23T16:48:02.045Z,9.35
2022-11-23T16:50:33.772Z,6.93
2022-11-23T16:53:09.624Z,5.85
2022-11-23T16:55:42.106Z,6.18
2022-11-23T16:58:14.539Z,5.32
2022-11-23T17:00:41.429Z,5.05
2022-11-23T17:03:14.116Z,3.20
2022-11-23T17:05:40.963Z,4.70
2022-11-23T17:08:08.263Z,6.20
2022-11-23T17:10:39.710Z,6.70
2022-11-23T17:13:12.936Z,5.40
2022-11-23T17:15:39.974Z,3.47
2022-11-23T17:18:14.177Z,3.33
2022-11-23T17:20:41.138Z,3.38
2022-11-23T17:23:08.402Z,4.20
2022-11-23T17:25:36.290Z,4.10
2022-11-23T17:28:04.891Z,3.73
2022-11-23T17:30:32.982Z,3.50
2022-11-23T17:33:00.829Z,3.60
2022-11-23T17:35:28.047Z,3.38
2022-11-23T17:37:55.484Z,5.47
2022-11-23T17:40:23.626Z,7.50
2022-11-23T17:42:50.618Z,7.90
2022-11-23T17:45:17.257Z,7.85
2022-11-23T17:47:45.318Z,5.72
2022-11-23T17:50:19.137Z,5.53
2022-11-23T17:52:47.323Z,4.40
2022-11-23T17:55:15.109Z,4.25
2022-11-23T17:57:42.369Z,6.50
2022-11-23T18:00:28.120Z,6.95
2022-11-23T18:02:55.163Z,7.35
2022-11-23T18:05:22.467Z,7.70
2022-11-23T18:07:50.696Z,9.48
2022-11-23T18:10:18.030Z,7.75
2022-11-23T18:12:46.119Z,5.55
2022-11-23T18:15:13.053Z,4.70
2022-11-23T18:17:40.658Z,4.40
2022-11-23T18:20:08.479Z,4.30
2022-11-23T18:22:36.111Z,5.03
2022-11-23T18:25:02.830Z,4.65
2022-11-23T18:27:29.920Z,4.75
2022-11-23T18:29:56.791Z,5.00
2022-11-23T18:32:24.500Z,7.30
2022-11-23T18:34:51.557Z,4.90
2022-11-23T18:37:18.540Z,6.45
2022-11-23T18:39:46.723Z,6.93
2022-11-23T18:42:17.591Z,8.90
2022-11-23T18:44:46.623Z,8.70
2022-11-23T18:47:14.261Z,7.72
2022-11-23T18:49:43.588Z,6.80
2022-11-23T18:52:13.770Z,11.38
2022-11-23T18:54:40.958Z,13.18
2022-11-23T18:57:08.682Z,11.43
2022-11-23T18:59:56.941Z,12.38
2022-11-23T19:02:23.912Z,17.27
2022-11-23T19:04:51.265Z,16.13
2022-11-23T19:07:25.135Z,29.10
2022-11-23T19:09:54.093Z,48.73
2022-11-23T19:12:21.064Z,32.63
2022-11-23T19:14:49.810Z,25.08
2022-11-23T19:17:17.798Z,21.83
2022-11-23T19:19:45.059Z,27.52
2022-11-23T19:22:14.068Z,34.90
2022-11-23T19:24:40.751Z,32.95
2022-11-23T19:27:09.876Z,14.25
2022-11-23T19:29:38.547Z,10.52
2022-11-23T19:32:07.021Z,8.70
2022-11-23T19:34:33.846Z,12.67
2022-11-23T19:37:04.316Z,11.70
2022-11-23T19:39:32.795Z,11.48
2022-11-23T19:41:59.894Z,7.97
2022-11-23T19:44:27.078Z,8.00
2022-11-23T19:46:54.983Z,5.63
2022-11-23T19:49:23.157Z,6.18
2022-11-23T19:51:53.505Z,5.38
2022-11-23T19:54:22.027Z,7.13
2022-11-23T19:56:50.563Z,7.43
2022-11-23T19:59:17.885Z,7.03
2022-11-23T20:01:45.718Z,5.80
2022-11-23T20:04:13.057Z,7.75
2022-11-23T20:06:43.593Z,7.00
2022-11-23T20:09:16.635Z,5.60
2022-11-23T20:11:50.308Z,5.43
2022-11-23T20:14:19.039Z,5.57
2022-11-23T20:16:47.943Z,7.10
2022-11-23T20:19:15.391Z,6.70
2022-11-23T20:21:43.200Z,5.90
2022-11-23T20:24:14.282Z,7.20
2022-11-23T20:26:42.857Z,6.60
2022-11-23T20:29:11.428Z,6.10
2022-11-23T20:31:39.405Z,6.68
2022-11-23T20:34:08.112Z,5.30
2022-11-23T20:36:37.889Z,7.23
2022-11-23T20:39:08.162Z,7.07
2022-11-23T20:41:36.655Z,8.30
2022-11-23T20:44:13.715Z,7.25
2022-11-23T20:49:29.869Z,5.90
2022-11-23T20:51:57.477Z,5.22
2022-11-23T20:54:24.527Z,4.80
2022-11-23T20:56:52.670Z,4.72
2022-11-23T20:59:20.274Z,5.82
2022-11-23T21:01:47.273Z,5.00
2022-11-23T21:04:13.988Z,5.60
2022-11-23T21:06:40.932Z,5.15
2022-11-23T21:09:09.345Z,4.00
2022-11-23T21:11:55.676Z,4.00
2022-11-23T21:14:27.941Z,4.53
2022-11-23T21:16:58.517Z,4.63
2022-11-23T21:19:36.642Z,3.65
2022-11-23T21:22:14.497Z,4.38
2022-11-23T21:24:41.325Z,3.78
2022-11-23T21:27:12.204Z,3.70
2022-11-23T21:29:39.158Z,3.97
2022-11-23T21:32:06.161Z,3.50
2022-11-23T21:34:33.149Z,3.90
2022-11-23T21:37:00.380Z,2.97
2022-11-23T21:39:29.948Z,3.30
2022-11-23T21:41:56.930Z,3.00
2022-11-23T21:44:23.577Z,2.80
2022-11-23T21:46:50.863Z,3.40
2022-11-23T21:49:17.631Z,3.60
2022-11-23T21:51:45.715Z,2.63
2022-11-23T21:54:16.556Z,3.10
2022-11-23T21:56:46.949Z,2.88
2022-11-23T21:59:14.552Z,3.45
2022-11-23T22:01:42.546Z,5.80
2022-11-23T22:04:11.548Z,5.20
2022-11-23T22:06:39.625Z,13.60
2022-11-23T22:09:09.332Z,18.42
2022-11-23T22:11:38.162Z,8.82
2022-11-23T22:14:11.673Z,15.73
2022-11-23T22:16:43.932Z,20.53
2022-11-23T22:19:12.134Z,14.35
2022-11-23T22:21:40.385Z,12.88
2022-11-23T22:24:12.513Z,11.93
2022-11-23T22:26:39.422Z,6.80
2022-11-23T22:29:06.846Z,10.53
2022-11-23T22:31:35.315Z,8.65
2022-11-23T22:34:03.631Z,4.68
2022-11-23T22:36:30.611Z,3.40
2022-11-23T22:39:01.771Z,8.45
2022-11-23T22:41:30.161Z,5.33
2022-11-23T22:43:57.079Z,4.63
2022-11-23T22:46:25.216Z,3.50
2022-11-23T22:48:52.737Z,2.70
2022-11-23T22:51:22.275Z,2.53
2022-11-23T22:53:57.202Z,3.23
2022-11-23T22:56:25.674Z,3.00
2022-11-23T22:58:52.487Z,2.72
2022-11-23T23:01:22.022Z,2.53
2022-11-23T23:03:52.481Z,2.55
2022-11-23T23:06:22.326Z,3.23
2022-11-23T23:08:53.590Z,3.08
2022-11-23T23:11:21.198Z,2.35
2022-11-23T23:13:48.008Z,2.42
2022-11-23T23:16:15.394Z,2.53
2022-11-23T23:18:43.232Z,2.20
2022-11-23T23:21:15.561Z,2.47
2022-11-23T23:23:45.160Z,4.00
2022-11-23T23:26:14.107Z,4.72
2022-11-23T23:28:41.135Z,4.30
2022-11-23T23:31:10.973Z,3.80
2022-11-23T23:33:38.170Z,9.43
2022-11-23T23:36:07.377Z,6.75
2022-11-23T23:38:34.567Z,14.85
2022-11-23T23:41:01.527Z,9.15
2022-11-23T23:43:29.441Z,6.63
2022-11-23T23:45:58.969Z,6.20
2022-11-23T23:48:29.190Z,5.68
2022-11-23T23:50:56.428Z,6.43
2022-11-23T23:53:23.361Z,5.70
2022-11-23T23:56:16.682Z,2.43
2022-11-23T23:58:44.066Z,2.83
